Time;durP1;ratioP1;P1;durP2;ratioP2;P2;SDS_P1;SDS_P2;PMS_P1;PMS_P2;Temp;Humidity;BMP_temperature;BMP_pressure;BME280_temperature;BME280_humidity;BME280_pressure;Samples;Min_cycle;Max_cycle;Signal;HPM_P1;HPM_P2
2022/02/10 00:04:21;;;;;;;0.95;0.50;;;31.10;93.90;;;;;;5073249;28;20125;-76
2022/02/10 00:07:08;;;;;;;1.85;0.50;;;31.30;93.60;;;;;;5072516;28;20021;-77
2022/02/10 00:35:57;;;;;;;5.20;1.27;;;31.60;96.30;;;;;;5076221;28;20513;-76
2022/02/10 00:38:30;;;;;;;6.78;1.30;;;31.70;96.80;;;;;;5075950;28;20024;-76
2022/02/10 00:40:57;;;;;;;5.25;1.42;;;31.60;96.00;;;;;;5076717;28;20032;-79
2022/02/10 00:43:25;;;;;;;5.95;1.30;;;31.60;96.50;;;;;;5076033;28;20046;-78
2022/02/10 00:45:52;;;;;;;5.60;1.50;;;31.60;96.30;;;;;;5076056;28;20428;-78
2022/02/10 00:48:20;;;;;;;5.38;1.50;;;31.40;96.50;;;;;;5075937;28;20027;-78
2022/02/10 00:50:50;;;;;;;8.57;2.20;;;31.80;97.00;;;;;;5075796;28;20155;-78
2022/02/10 00:53:25;;;;;;;9.52;1.63;;;31.80;95.50;;;;;;5074223;28;20028;-77
2022/02/10 00:55:53;;;;;;;6.65;1.80;;;31.80;96.10;;;;;;5075856;28;20024;-77
2022/02/10 00:58:24;;;;;;;8.73;1.58;;;31.80;95.80;;;;;;5075664;28;20013;-78
2022/02/10 01:24:27;;;;;;;4.55;1.40;;;32.20;95.20;;;;;;5075332;28;20052;-78
2022/02/10 01:31:07;;;;;;;7.75;1.48;;;32.90;95.60;;;;;;5075252;28;20505;-77
2022/02/10 01:33:36;;;;;;;4.32;1.17;;;32.90;94.90;;;;;;5074925;28;20070;-77
2022/02/10 01:36:03;;;;;;;4.03;1.35;;;32.90;94.70;;;;;;5074626;28;20020;-77
2022/02/10 01:38:31;;;;;;;5.03;1.10;;;33.00;95.00;;;;;;5074736;28;20023;-77
2022/02/10 01:58:03;;;;;;;5.82;1.33;;;33.30;94.80;;;;;;5075219;28;20495;-79
2022/02/10 02:03:24;;;;;;;6.32;1.38;;;33.20;94.40;;;;;;5075660;28;20115;-79
2022/02/10 02:06:00;;;;;;;6.57;1.55;;;33.10;95.10;;;;;;5074069;28;20043;-79
2022/02/10 02:08:30;;;;;;;5.90;1.52;;;33.30;95.40;;;;;;5073848;28;20036;-80
2022/02/10 02:11:00;;;;;;;6.07;1.58;;;33.40;95.20;;;;;;5075009;28;20539;-80
2022/02/10 02:13:27;;;;;;;5.10;1.58;;;33.40;95.40;;;;;;5073330;28;20060;-80
2022/02/10 02:15:55;;;;;;;5.63;1.58;;;33.50;95.20;;;;;;5074204;28;20535;-79
2022/02/10 02:18:23;;;;;;;6.65;2.15;;;33.60;95.20;;;;;;5073275;28;20377;-79
2022/02/10 02:20:52;;;;;;;6.30;1.80;;;33.60;95.60;;;;;;5074418;28;20046;-79
2022/02/10 02:23:21;;;;;;;7.75;1.60;;;33.70;96.00;;;;;;5074244;28;20065;-80
2022/02/10 02:25:55;;;;;;;6.15;1.40;;;33.80;96.00;;;;;;5073078;28;20085;-80
2022/02/10 02:28:23;;;;;;;6.03;1.75;;;33.60;95.70;;;;;;5074471;28;20024;-80
2022/02/10 02:30:56;;;;;;;3.33;1.58;;;33.50;97.20;;;;;;5072768;28;20489;-79
2022/02/10 03:06:47;;;;;;;3.38;1.20;;;33.80;97.40;;;;;;5051174;28;20737;-78
2022/02/10 03:09:22;;;;;;;2.95;1.15;;;33.60;97.80;;;;;;5051107;28;20482;-77
2022/02/10 03:11:49;;;;;;;5.85;1.40;;;33.70;99.90;;;;;;5063466;28;20045;-81
2022/02/10 03:14:25;;;;;;;3.90;1.20;;;33.80;99.90;;;;;;5073930;28;20458;-78
2022/02/10 03:19:55;;;;;;;2.97;1.02;;;33.40;98.50;;;;;;5074228;28;20048;-80
2022/02/10 04:16:37;;;;;;;7.22;1.65;;;34.40;95.60;;;;;;5076514;28;20020;-78
2022/02/10 04:22:08;;;;;;;3.90;1.50;;;34.50;95.90;;;;;;5076474;28;20536;-77
2022/02/10 04:24:58;;;;;;;5.45;1.27;;;33.90;95.30;;;;;;5075910;28;20047;-76
2022/02/10 04:38:45;;;;;;;6.15;1.50;;;33.20;95.70;;;;;;5076234;28;20063;-76
2022/02/10 05:00:16;;;;;;;4.40;1.60;;;32.60;95.20;;;;;;5075846;28;20100;-77
2022/02/10 05:03:30;;;;;;;3.65;1.35;;;32.00;95.90;;;;;;5074299;28;20028;-76
2022/02/10 05:34:42;;;;;;;9.60;3.10;;;28.70;99.90;;;;;;5075371;28;20393;-75
2022/02/10 05:37:09;;;;;;;11.52;3.30;;;28.20;99.90;;;;;;5073619;28;20032;-74
2022/02/10 05:39:42;;;;;;;12.38;4.63;;;27.60;99.90;;;;;;5074835;28;20082;-72
2022/02/10 05:44:56;;;;;;;21.98;6.85;;;26.70;99.90;;;;;;5075063;28;20489;-74
2022/02/10 05:47:51;;;;;;;14.43;4.80;;;26.50;99.90;;;;;;5074488;28;20051;-74
2022/02/10 05:53:53;;;;;;;12.55;4.22;;;26.50;99.90;;;;;;5074362;28;20130;-75
2022/02/10 05:55:58;;;;;;;11.88;3.65;;;26.30;99.90;;;;;;5071308;28;20048;-74
2022/02/10 05:58:35;;;;;;;9.40;3.28;;;26.20;99.90;;;;;;5073126;28;20529;-74
2022/02/10 07:07:01;;;;;;;3.55;1.38;;;28.90;99.90;;;;;;5073643;28;20104;-76
2022/02/10 07:09:34;;;;;;;3.42;1.33;;;28.70;99.90;;;;;;5072970;28;20039;-75
2022/02/10 07:54:08;;;;;;;2.65;0.70;;;27.60;99.90;;;;;;5076952;28;20025;-76
2022/02/10 08:49:44;;;;;;;6.95;1.50;;;25.90;99.90;;;;;;5076190;28;20031;-76
2022/02/10 08:49:51;;;;;;;5.78;1.40;;;25.80;99.90;;;;;;5076263;28;20401;-76
2022/02/10 08:56:53;;;;;;;7.20;1.92;;;25.20;99.90;;;;;;5075014;28;20031;-75
2022/02/10 08:59:56;;;;;;;11.48;2.55;;;25.00;99.90;;;;;;5074227;28;20016;-75
2022/02/10 09:13:08;;;;;;;5.80;1.38;;;25.00;99.90;;;;;;5075297;28;20082;-75
2022/02/10 09:18:33;;;;;;;7.60;2.25;;;25.20;99.90;;;;;;5075610;28;20093;-76
2022/02/10 10:04:51;;;;;;;5.03;2.20;;;25.00;99.90;;;;;;5074361;28;20499;-75
2022/02/10 10:09:59;;;;;;;5.18;2.40;;;25.00;99.90;;;;;;5073045;28;20053;-74
2022/02/10 10:15:22;;;;;;;9.13;2.10;;;25.20;99.90;;;;;;5074473;28;20036;-74
2022/02/10 10:18:45;;;;;;;9.13;2.25;;;25.20;99.90;;;;;;5072875;28;20056;-74
2022/02/10 10:49:43;;;;;;;18.92;3.85;;;24.20;99.90;;;;;;5073896;28;20032;-75
2022/02/10 10:57:52;;;;;;;16.75;5.05;;;23.80;99.90;;;;;;5073814;28;20031;-75
2022/02/10 11:23:52;;;;;;;19.88;5.60;;;22.90;99.90;;;;;;5073348;28;20074;-75
2022/02/10 11:37:10;;;;;;;20.02;6.25;;;22.70;99.90;;;;;;5073298;28;20058;-75
2022/02/10 11:39:54;;;;;;;23.92;7.53;;;22.60;99.90;;;;;;5071740;28;20416;-75
2022/02/10 11:42:33;;;;;;;20.55;6.82;;;22.60;99.90;;;;;;5071797;28;20021;-75
2022/02/10 13:03:23;;;;;;;21.52;5.82;;;22.00;99.90;;;;;;5076010;28;20024;-75
2022/02/10 14:13:35;;;;;;;10.60;3.17;;;21.70;99.90;;;;;;5074299;28;20056;-73
2022/02/10 14:16:26;;;;;;;9.60;3.63;;;21.80;99.90;;;;;;5072833;28;20501;-74
2022/02/10 14:18:57;;;;;;;12.35;3.20;;;21.80;99.90;;;;;;5074282;28;20493;-74
2022/02/10 14:21:32;;;;;;;14.57;3.20;;;21.70;99.90;;;;;;5072825;28;20032;-73
2022/02/10 14:26:46;;;;;;;13.73;3.70;;;21.70;99.90;;;;;;5073999;28;20028;-73
2022/02/10 14:29:13;;;;;;;10.20;2.63;;;21.60;99.90;;;;;;5072741;28;20417;-74
2022/02/10 14:31:40;;;;;;;10.60;3.50;;;21.60;99.90;;;;;;5073812;28;20104;-73
2022/02/10 14:34:08;;;;;;;8.05;2.65;;;21.50;99.90;;;;;;5073823;28;20017;-73
2022/02/10 14:36:43;;;;;;;13.90;3.45;;;21.50;99.90;;;;;;5072481;28;20020;-74
2022/02/10 16:17:57;;;;;;;8.70;2.33;;;20.70;99.90;;;;;;5076715;28;20092;-73
2022/02/10 16:20:29;;;;;;;7.70;2.58;;;20.70;99.90;;;;;;5076582;28;20016;-72
2022/02/10 16:23:04;;;;;;;8.23;2.58;;;20.70;99.90;;;;;;5076507;28;20474;-73
2022/02/10 16:25:35;;;;;;;8.95;3.20;;;20.60;99.90;;;;;;5076450;28;20048;-73
2022/02/10 16:28:25;;;;;;;5.65;2.30;;;20.50;99.90;;;;;;5076507;28;20112;-74
2022/02/10 16:30:55;;;;;;;10.32;2.38;;;20.50;99.90;;;;;;5076405;28;20035;-73
2022/02/10 16:33:22;;;;;;;7.15;3.15;;;20.50;99.90;;;;;;5076491;28;20461;-73
2022/02/10 16:35:50;;;;;;;9.15;3.03;;;20.50;99.90;;;;;;5075058;28;20025;-73
2022/02/10 16:38:20;;;;;;;8.93;3.50;;;20.50;99.90;;;;;;5076176;28;20095;-73
2022/02/10 16:40:47;;;;;;;5.50;2.40;;;20.50;99.90;;;;;;5074925;28;20528;-74
2022/02/10 16:43:16;;;;;;;7.20;2.67;;;20.50;99.90;;;;;;5076042;28;20020;-73
2022/02/10 16:45:43;;;;;;;7.53;3.10;;;20.50;99.90;;;;;;5074765;28;20025;-74
2022/02/10 16:48:12;;;;;;;10.13;3.70;;;20.50;99.90;;;;;;5076034;28;20112;-74
2022/02/10 16:50:44;;;;;;;14.73;4.05;;;20.40;99.90;;;;;;5074660;28;20029;-73
2022/02/10 16:53:16;;;;;;;10.50;3.90;;;20.30;99.90;;;;;;5074565;28;20500;-73
2022/02/10 17:01:19;;;;;;;8.48;4.65;;;20.20;99.90;;;;;;5075853;28;20027;-73
2022/02/10 17:25:21;;;;;;;10.32;4.32;;;20.00;99.90;;;;;;5075286;28;20124;-73
2022/02/10 17:27:55;;;;;;;10.68;4.60;;;20.00;99.90;;;;;;5075292;28;20031;-74
2022/02/10 17:36:12;;;;;;;9.88;4.28;;;19.80;99.90;;;;;;5075093;28;20573;-74
2022/02/10 17:54:26;;;;;;;7.97;3.72;;;19.80;99.90;;;;;;5074724;28;20016;-74
2022/02/10 17:56:54;;;;;;;9.55;4.10;;;19.80;99.90;;;;;;5074599;28;20028;-74
2022/02/10 17:59:22;;;;;;;7.70;3.72;;;19.90;99.90;;;;;;5073419;28;20414;-72
2022/02/10 18:01:51;;;;;;;9.82;3.70;;;19.90;99.90;;;;;;5073514;28;20082;-72
2022/02/10 18:04:20;;;;;;;8.88;3.85;;;19.90;99.90;;;;;;5073200;28;20021;-73
2022/02/10 18:06:53;;;;;;;8.38;3.70;;;20.00;99.90;;;;;;5074513;28;20034;-73
2022/02/10 18:14:56;;;;;;;12.10;4.13;;;20.00;99.90;;;;;;5074773;28;20075;-75
2022/02/10 18:19:58;;;;;;;17.95;4.82;;;20.10;99.90;;;;;;5074402;28;20555;-73
2022/02/10 18:25:18;;;;;;;13.63;4.13;;;20.10;99.90;;;;;;5074110;28;20076;-73
2022/02/10 18:30:37;;;;;;;17.00;4.35;;;20.10;99.90;;;;;;5074258;28;20025;-73
2022/02/10 18:33:28;;;;;;;11.25;3.95;;;20.10;99.90;;;;;;5072799;28;20112;-74
2022/02/10 19:06:44;;;;;;;21.13;4.93;;;19.90;99.90;;;;;;5063165;28;20557;-73
2022/02/10 19:09:24;;;;;;;12.95;4.45;;;19.90;99.90;;;;;;5072194;28;20032;-73
2022/02/10 19:11:59;;;;;;;13.60;5.10;;;19.90;99.90;;;;;;5073585;28;20059;-73
2022/02/10 19:14:27;;;;;;;21.38;5.18;;;19.90;99.90;;;;;;5073509;28;20078;-73
2022/02/10 19:16:54;;;;;;;13.00;4.40;;;19.90;99.90;;;;;;5073304;28;20028;-73
2022/02/10 19:19:22;;;;;;;13.25;5.20;;;19.90;99.90;;;;;;5073262;28;20025;-73
2022/02/10 19:21:50;;;;;;;15.27;4.00;;;19.90;99.90;;;;;;5071713;28;20025;-73
2022/02/10 19:24:17;;;;;;;14.60;5.00;;;19.90;99.90;;;;;;5072800;28;20048;-72
2022/02/10 19:26:50;;;;;;;13.85;4.40;;;19.80;99.90;;;;;;5072943;28;20027;-73
2022/02/10 19:29:20;;;;;;;12.88;4.53;;;19.80;99.90;;;;;;5073134;28;20115;-73
2022/02/10 19:31:48;;;;;;;12.77;4.45;;;19.80;99.90;;;;;;5073112;28;20024;-73
2022/02/10 19:34:16;;;;;;;20.60;4.80;;;19.80;99.90;;;;;;5073104;28;20024;-73
2022/02/10 19:36:43;;;;;;;14.93;4.85;;;19.80;99.90;;;;;;5072845;28;20025;-73
2022/02/10 19:39:15;;;;;;;14.32;4.07;;;19.90;99.90;;;;;;5072357;28;20016;-73
2022/02/10 19:41:47;;;;;;;12.98;4.43;;;19.80;99.90;;;;;;5072963;28;20101;-73
2022/02/10 19:44:15;;;;;;;16.42;4.18;;;19.80;99.90;;;;;;5071698;28;20082;-73
2022/02/10 19:46:44;;;;;;;16.13;4.07;;;19.80;99.90;;;;;;5071520;28;20032;-73
2022/02/10 19:49:19;;;;;;;15.10;4.10;;;19.80;99.90;;;;;;5073019;28;20500;-73
2022/02/10 19:51:47;;;;;;;14.85;4.22;;;19.90;99.90;;;;;;5071750;28;20119;-73
2022/02/10 19:54:22;;;;;;;13.48;4.05;;;20.00;99.90;;;;;;5072959;28;20036;-74
2022/02/10 19:56:50;;;;;;;16.35;4.35;;;19.90;99.90;;;;;;5072710;28;20020;-74
2022/02/10 19:59:19;;;;;;;21.58;4.72;;;20.00;99.90;;;;;;5072868;28;20359;-73
2022/02/10 20:01:49;;;;;;;18.05;4.53;;;20.00;99.90;;;;;;5072747;28;20024;-74
2022/02/10 20:04:19;;;;;;;15.27;4.83;;;20.10;99.90;;;;;;5071462;28;20033;-74
2022/02/10 20:06:47;;;;;;;16.77;5.00;;;20.10;99.90;;;;;;5071498;28;20025;-74
2022/02/10 20:09:18;;;;;;;14.52;5.07;;;20.10;99.90;;;;;;5072861;28;20758;-74
2022/02/10 20:11:51;;;;;;;13.02;4.35;;;20.10;99.90;;;;;;5072910;28;20025;-74
2022/02/10 20:14:21;;;;;;;14.85;4.10;;;20.20;99.90;;;;;;5072762;28;20024;-74
2022/02/10 20:16:49;;;;;;;15.32;4.45;;;20.20;99.90;;;;;;5072755;28;20492;-74
2022/02/10 20:19:16;;;;;;;16.45;4.57;;;20.30;99.90;;;;;;5072661;28;20025;-74
2022/02/10 20:21:44;;;;;;;12.43;4.32;;;20.40;99.90;;;;;;5072711;28;20020;-75
2022/02/10 20:24:11;;;;;;;14.13;4.47;;;20.50;99.90;;;;;;5072461;28;20040;-74
2022/02/10 20:26:39;;;;;;;15.60;5.15;;;20.60;99.90;;;;;;5072734;28;20036;-74
2022/02/10 20:29:08;;;;;;;13.18;4.63;;;20.70;99.90;;;;;;5072557;28;20035;-74
2022/02/10 20:31:39;;;;;;;18.20;4.30;;;20.70;99.90;;;;;;5072675;28;20492;-75
2022/02/10 20:34:13;;;;;;;16.45;4.40;;;20.80;99.90;;;;;;5072588;28;20031;-74
2022/02/10 20:36:41;;;;;;;13.07;4.25;;;21.00;99.90;;;;;;5071343;28;20025;-74
2022/02/10 20:39:08;;;;;;;18.13;5.07;;;21.20;99.90;;;;;;5072539;28;20028;-74
2022/02/10 20:41:37;;;;;;;11.65;4.22;;;21.20;99.90;;;;;;5071289;28;20035;-74
2022/02/10 20:44:05;;;;;;;16.70;4.43;;;21.30;99.90;;;;;;5071090;28;20546;-74
2022/02/10 20:46:39;;;;;;;13.45;3.78;;;21.40;99.90;;;;;;5072271;28;20105;-74
2022/02/10 20:49:15;;;;;;;17.23;3.72;;;21.50;99.90;;;;;;5070909;28;20029;-73
2022/02/10 20:51:43;;;;;;;14.25;4.03;;;21.60;99.90;;;;;;5074158;28;20202;-73
2022/02/10 20:54:10;;;;;;;14.13;3.22;;;21.70;99.90;;;;;;5074339;28;20021;-73
2022/02/10 20:56:38;;;;;;;18.80;3.53;;;21.80;99.90;;;;;;5075812;28;20032;-73
2022/02/10 20:59:32;;;;;;;16.63;5.88;;;21.90;99.90;;;;;;5075569;28;20025;-74
2022/02/10 21:02:00;;;;;;;12.38;3.72;;;22.00;99.90;;;;;;5075583;28;20557;-74
2022/02/10 21:04:31;;;;;;;17.23;4.28;;;22.20;99.90;;;;;;5075673;28;20027;-74
2022/02/10 21:07:46;;;;;;;16.42;3.55;;;22.30;99.90;;;;;;5074563;28;20405;-73
2022/02/10 21:12:19;;;;;;;15.43;2.83;;;22.40;99.90;;;;;;5075482;28;20025;-74
2022/02/10 21:14:48;;;;;;;12.90;3.40;;;22.60;99.90;;;;;;5074230;28;20478;-73
2022/02/10 21:17:21;;;;;;;11.45;2.65;;;22.70;99.90;;;;;;5075568;28;20020;-73
2022/02/10 21:19:49;;;;;;;14.32;3.30;;;22.90;99.90;;;;;;5075603;28;20024;-70
2022/02/10 21:22:19;;;;;;;9.95;3.33;;;23.10;99.90;;;;;;5075407;28;20421;-73
2022/02/10 21:27:48;;;;;;;11.35;2.55;;;23.20;99.90;;;;;;5073825;28;19912;-72
2022/02/10 21:30:17;;;;;;;13.45;3.00;;;23.10;99.90;;;;;;5075184;28;20450;-73
2022/02/10 21:40:57;;;;;;;8.50;2.88;;;23.40;99.90;;;;;;5077203;28;20036;-74
2022/02/10 21:47:23;;;;;;;13.52;3.05;;;23.30;99.90;;;;;;5074985;28;20559;-75
2022/02/10 21:59:55;;;;;;;9.38;2.70;;;23.30;99.90;;;;;;5074566;28;20390;-75
2022/02/10 22:10:32;;;;;;;12.07;3.33;;;24.00;99.90;;;;;;5074594;28;20028;-75
2022/02/10 22:18:48;;;;;;;10.38;2.60;;;24.40;99.90;;;;;;5074225;28;20507;-73
2022/02/10 22:21:25;;;;;;;11.82;2.70;;;24.80;99.90;;;;;;5074520;28;20027;-73
2022/02/10 22:23:52;;;;;;;11.13;2.78;;;25.00;99.90;;;;;;5072964;28;20045;-74
2022/02/10 22:26:29;;;;;;;12.02;2.90;;;25.00;99.90;;;;;;5074050;28;20454;-75
2022/02/10 22:29:05;;;;;;;9.32;3.17;;;24.80;99.90;;;;;;5074201;28;20024;-75
2022/02/10 22:36:35;;;;;;;9.38;2.50;;;24.00;99.90;;;;;;5073745;28;20048;-75
2022/02/10 22:39:04;;;;;;;8.88;2.60;;;24.20;99.90;;;;;;5073943;28;20048;-75
2022/02/10 22:41:33;;;;;;;10.38;3.50;;;24.20;99.90;;;;;;5073842;28;20016;-74
2022/02/10 22:44:03;;;;;;;8.07;2.88;;;24.20;99.90;;;;;;5072584;28;20033;-74
2022/02/10 22:46:31;;;;;;;10.52;3.55;;;24.30;99.90;;;;;;5073872;28;20477;-76
2022/02/10 22:48:59;;;;;;;10.55;3.75;;;24.00;99.90;;;;;;5073852;28;20502;-77
2022/02/10 22:51:32;;;;;;;12.02;3.63;;;24.20;99.90;;;;;;5073581;28;20039;-75
2022/02/10 22:54:00;;;;;;;12.20;4.22;;;24.00;99.90;;;;;;5072296;28;20032;-75
2022/02/10 22:56:31;;;;;;;10.65;3.78;;;23.70;99.90;;;;;;5072009;28;20025;-75
2022/02/10 22:59:05;;;;;;;14.30;4.65;;;23.50;99.90;;;;;;5072269;28;20109;-74
2022/02/10 23:01:33;;;;;;;16.77;4.57;;;23.20;99.90;;;;;;5072135;28;20124;-76
2022/02/10 23:04:01;;;;;;;13.30;3.67;;;23.00;99.90;;;;;;5072210;28;20021;-74
2022/02/10 23:06:28;;;;;;;16.80;4.32;;;22.90;99.90;;;;;;5072173;28;20497;-75
2022/02/10 23:08:56;;;;;;;12.52;4.03;;;22.90;99.90;;;;;;5072146;28;20024;-75
2022/02/10 23:11:28;;;;;;;15.00;3.95;;;23.10;99.90;;;;;;5072880;28;20043;-74
2022/02/10 23:13:58;;;;;;;13.10;3.90;;;23.40;99.90;;;;;;5072366;28;20053;-74
2022/02/10 23:16:28;;;;;;;13.53;4.03;;;23.40;99.90;;;;;;5071876;28;20031;-74
2022/02/10 23:18:56;;;;;;;15.38;4.43;;;23.40;99.90;;;;;;5073274;28;20045;-75
2022/02/10 23:21:24;;;;;;;14.23;4.07;;;23.50;99.90;;;;;;5073212;28;20103;-74
2022/02/10 23:23:52;;;;;;;14.20;4.07;;;23.60;99.90;;;;;;5072892;28;20054;-75
2022/02/10 23:26:21;;;;;;;11.40;3.10;;;23.80;99.90;;;;;;5071730;28;20055;-75
2022/02/10 23:28:51;;;;;;;9.07;2.63;;;23.90;99.90;;;;;;5072958;28;20085;-75
2022/02/10 23:31:21;;;;;;;9.13;2.00;;;24.00;99.90;;;;;;5071814;28;20025;-74
2022/02/10 23:33:52;;;;;;;8.55;2.72;;;24.10;99.90;;;;;;5071855;28;20032;-74
2022/02/10 23:39:06;;;;;;;13.00;2.67;;;24.90;99.90;;;;;;5072961;28;20024;-74
2022/02/10 23:44:10;;;;;;;8.30;1.88;;;25.70;99.90;;;;;;5073259;28;20376;-74
2022/02/10 23:46:39;;;;;;;10.38;2.60;;;25.60;99.90;;;;;;5073063;28;20024;-75
2022/02/10 23:49:07;;;;;;;10.85;2.30;;;25.30;99.90;;;;;;5072844;28;20485;-75
2022/02/10 23:51:45;;;;;;;11.15;2.30;;;25.20;99.90;;;;;;5071535;28;20478;-76
2022/02/10 23:54:12;;;;;;;9.85;2.72;;;25.00;99.90;;;;;;5071560;28;20035;-75
2022/02/10 23:56:45;;;;;;;10.25;2.67;;;24.90;99.90;;;;;;5072810;28;20028;-75
2022/02/10 23:59:25;;;;;;;10.65;3.08;;;25.00;99.90;;;;;;5071450;28;20016;-74
